sensor_id;sensor_type;location;lat;lon;timestamp;temperature;humidity
18177;DHT22;9213;50.858;3.964;2023-08-06T00:00:59;19.30;65.70
18177;DHT22;9213;50.858;3.964;2023-08-06T00:03:26;19.30;65.80
18177;DHT22;9213;50.858;3.964;2023-08-06T00:05:53;19.30;65.70
18177;DHT22;9213;50.858;3.964;2023-08-06T00:08:20;19.30;65.80
18177;DHT22;9213;50.858;3.964;2023-08-06T00:10:49;19.20;65.80
18177;DHT22;9213;50.858;3.964;2023-08-06T00:13:15;19.20;66.00
18177;DHT22;9213;50.858;3.964;2023-08-06T00:15:42;19.20;66.00
18177;DHT22;9213;50.858;3.964;2023-08-06T00:18:09;19.20;66.00
18177;DHT22;9213;50.858;3.964;2023-08-06T00:20:39;19.10;66.10
18177;DHT22;9213;50.858;3.964;2023-08-06T00:23:06;19.20;66.20
18177;DHT22;9213;50.858;3.964;2023-08-06T00:25:32;19.20;66.20
18177;DHT22;9213;50.858;3.964;2023-08-06T00:28:01;19.20;66.10
18177;DHT22;9213;50.858;3.964;2023-08-06T00:30:28;19.20;66.20
18177;DHT22;9213;50.858;3.964;2023-08-06T00:32:54;19.20;66.00
18177;DHT22;9213;50.858;3.964;2023-08-06T00:35:21;19.20;65.90
18177;DHT22;9213;50.858;3.964;2023-08-06T00:37:48;19.20;65.80
18177;DHT22;9213;50.858;3.964;2023-08-06T00:40:15;19.10;65.70
18177;DHT22;9213;50.858;3.964;2023-08-06T00:42:42;19.10;65.70
18177;DHT22;9213;50.858;3.964;2023-08-06T00:45:11;19.10;65.70
18177;DHT22;9213;50.858;3.964;2023-08-06T00:47:38;19.00;65.80
18177;DHT22;9213;50.858;3.964;2023-08-06T00:50:07;19.00;65.90
18177;DHT22;9213;50.858;3.964;2023-08-06T00:52:35;19.00;66.10
18177;DHT22;9213;50.858;3.964;2023-08-06T00:55:02;19.10;66.20
18177;DHT22;9213;50.858;3.964;2023-08-06T00:57:30;19.10;66.20
18177;DHT22;9213;50.858;3.964;2023-08-06T00:59:57;19.10;66.10
18177;DHT22;9213;50.858;3.964;2023-08-06T01:02:25;19.20;65.90
18177;DHT22;9213;50.858;3.964;2023-08-06T01:04:52;19.20;65.90
18177;DHT22;9213;50.858;3.964;2023-08-06T01:07:29;19.20;65.70
18177;DHT22;9213;50.858;3.964;2023-08-06T01:10:19;19.30;65.80
18177;DHT22;9213;50.858;3.964;2023-08-06T01:12:51;19.20;65.50
18177;DHT22;9213;50.858;3.964;2023-08-06T01:15:22;19.30;65.40
18177;DHT22;9213;50.858;3.964;2023-08-06T01:17:51;19.30;65.40
18177;DHT22;9213;50.858;3.964;2023-08-06T01:20:19;19.30;65.40
18177;DHT22;9213;50.858;3.964;2023-08-06T01:22:47;19.30;65.10
18177;DHT22;9213;50.858;3.964;2023-08-06T01:25:15;19.30;64.90
18177;DHT22;9213;50.858;3.964;2023-08-06T01:27:47;19.30;64.80
18177;DHT22;9213;50.858;3.964;2023-08-06T01:30:17;19.30;64.70
18177;DHT22;9213;50.858;3.964;2023-08-06T01:32:49;19.20;64.40
18177;DHT22;9213;50.858;3.964;2023-08-06T01:35:19;19.20;64.30
18177;DHT22;9213;50.858;3.964;2023-08-06T01:37:48;19.20;64.20
18177;DHT22;9213;50.858;3.964;2023-08-06T01:40:15;19.10;64.20
18177;DHT22;9213;50.858;3.964;2023-08-06T01:42:42;19.10;64.30
18177;DHT22;9213;50.858;3.964;2023-08-06T01:45:10;19.00;64.40
18177;DHT22;9213;50.858;3.964;2023-08-06T01:47:37;19.00;64.50
18177;DHT22;9213;50.858;3.964;2023-08-06T01:50:04;19.00;64.50
18177;DHT22;9213;50.858;3.964;2023-08-06T01:52:31;18.90;64.70
18177;DHT22;9213;50.858;3.964;2023-08-06T01:54:59;18.90;64.80
18177;DHT22;9213;50.858;3.964;2023-08-06T01:57:26;18.90;65.00
18177;DHT22;9213;50.858;3.964;2023-08-06T01:59:53;18.90;65.10
18177;DHT22;9213;50.858;3.964;2023-08-06T02:02:20;18.90;65.20
18177;DHT22;9213;50.858;3.964;2023-08-06T02:04:47;18.80;65.30
18177;DHT22;9213;50.858;3.964;2023-08-06T02:07:14;18.80;65.40
18177;DHT22;9213;50.858;3.964;2023-08-06T02:09:41;18.80;65.50
18177;DHT22;9213;50.858;3.964;2023-08-06T02:12:09;18.80;65.70
18177;DHT22;9213;50.858;3.964;2023-08-06T02:14:36;18.80;65.80
18177;DHT22;9213;50.858;3.964;2023-08-06T02:17:03;18.80;65.90
18177;DHT22;9213;50.858;3.964;2023-08-06T02:19:30;18.90;66.00
18177;DHT22;9213;50.858;3.964;2023-08-06T02:21:57;18.90;66.00
18177;DHT22;9213;50.858;3.964;2023-08-06T02:24:24;18.90;66.10
18177;DHT22;9213;50.858;3.964;2023-08-06T02:26:50;18.90;66.10
18177;DHT22;9213;50.858;3.964;2023-08-06T02:29:22;18.90;66.20
18177;DHT22;9213;50.858;3.964;2023-08-06T02:31:49;18.90;66.30
18177;DHT22;9213;50.858;3.964;2023-08-06T02:34:16;18.90;66.20
18177;DHT22;9213;50.858;3.964;2023-08-06T02:36:43;18.90;66.30
18177;DHT22;9213;50.858;3.964;2023-08-06T02:39:10;18.90;66.30
18177;DHT22;9213;50.858;3.964;2023-08-06T02:41:36;18.90;66.40
18177;DHT22;9213;50.858;3.964;2023-08-06T02:44:04;18.90;66.30
18177;DHT22;9213;50.858;3.964;2023-08-06T02:46:32;18.90;66.40
18177;DHT22;9213;50.858;3.964;2023-08-06T02:48:59;18.90;66.40
18177;DHT22;9213;50.858;3.964;2023-08-06T02:51:26;18.90;66.40
18177;DHT22;9213;50.858;3.964;2023-08-06T02:53:52;18.90;66.30
18177;DHT22;9213;50.858;3.964;2023-08-06T02:56:19;18.90;66.20
18177;DHT22;9213;50.858;3.964;2023-08-06T02:58:46;18.80;65.90
18177;DHT22;9213;50.858;3.964;2023-08-06T03:01:14;18.80;66.00
18177;DHT22;9213;50.858;3.964;2023-08-06T03:03:42;18.70;66.10
18177;DHT22;9213;50.858;3.964;2023-08-06T03:06:09;18.70;66.40
18177;DHT22;9213;50.858;3.964;2023-08-06T03:08:36;18.70;66.40
18177;DHT22;9213;50.858;3.964;2023-08-06T03:11:03;18.70;66.40
18177;DHT22;9213;50.858;3.964;2023-08-06T03:13:30;18.70;66.50
18177;DHT22;9213;50.858;3.964;2023-08-06T03:15:58;18.70;66.40
18177;DHT22;9213;50.858;3.964;2023-08-06T03:18:25;18.70;66.30
18177;DHT22;9213;50.858;3.964;2023-08-06T03:20:54;18.70;66.10
18177;DHT22;9213;50.858;3.964;2023-08-06T03:23:21;18.60;66.00
18177;DHT22;9213;50.858;3.964;2023-08-06T03:25:48;18.60;65.70
18177;DHT22;9213;50.858;3.964;2023-08-06T03:28:15;18.60;65.60
18177;DHT22;9213;50.858;3.964;2023-08-06T03:30:42;18.50;65.60
18177;DHT22;9213;50.858;3.964;2023-08-06T03:33:09;18.50;65.60
18177;DHT22;9213;50.858;3.964;2023-08-06T03:35:36;18.40;65.50
18177;DHT22;9213;50.858;3.964;2023-08-06T03:38:04;18.40;65.50
18177;DHT22;9213;50.858;3.964;2023-08-06T03:40:31;18.40;65.60
18177;DHT22;9213;50.858;3.964;2023-08-06T03:42:58;18.40;65.60
18177;DHT22;9213;50.858;3.964;2023-08-06T03:45:25;18.40;65.60
18177;DHT22;9213;50.858;3.964;2023-08-06T03:47:51;18.40;65.40
18177;DHT22;9213;50.858;3.964;2023-08-06T03:50:18;18.30;65.40
18177;DHT22;9213;50.858;3.964;2023-08-06T03:52:45;18.30;65.20
18177;DHT22;9213;50.858;3.964;2023-08-06T03:55:13;18.20;65.10
18177;DHT22;9213;50.858;3.964;2023-08-06T03:57:41;18.20;65.10
18177;DHT22;9213;50.858;3.964;2023-08-06T04:00:08;18.10;65.00
18177;DHT22;9213;50.858;3.964;2023-08-06T04:02:35;18.10;65.10
18177;DHT22;9213;50.858;3.964;2023-08-06T04:05:02;18.10;65.10
18177;DHT22;9213;50.858;3.964;2023-08-06T04:07:29;18.00;65.10
18177;DHT22;9213;50.858;3.964;2023-08-06T04:09:58;17.90;65.20
18177;DHT22;9213;50.858;3.964;2023-08-06T04:12:27;17.90;65.50
18177;DHT22;9213;50.858;3.964;2023-08-06T04:14:54;17.90;65.80
18177;DHT22;9213;50.858;3.964;2023-08-06T04:17:21;17.90;65.90
18177;DHT22;9213;50.858;3.964;2023-08-06T04:19:50;17.90;66.00
18177;DHT22;9213;50.858;3.964;2023-08-06T04:22:17;17.90;66.20
18177;DHT22;9213;50.858;3.964;2023-08-06T04:24:45;17.90;66.20
18177;DHT22;9213;50.858;3.964;2023-08-06T04:27:12;18.00;66.30
18177;DHT22;9213;50.858;3.964;2023-08-06T04:29:41;17.90;66.30
18177;DHT22;9213;50.858;3.964;2023-08-06T04:32:09;18.00;66.40
18177;DHT22;9213;50.858;3.964;2023-08-06T04:34:37;18.00;66.50
18177;DHT22;9213;50.858;3.964;2023-08-06T04:37:04;18.00;66.50
18177;DHT22;9213;50.858;3.964;2023-08-06T04:39:31;18.10;66.60
18177;DHT22;9213;50.858;3.964;2023-08-06T04:41:58;18.00;66.40
18177;DHT22;9213;50.858;3.964;2023-08-06T04:44:25;18.00;66.30
18177;DHT22;9213;50.858;3.964;2023-08-06T04:46:53;18.10;66.40
18177;DHT22;9213;50.858;3.964;2023-08-06T04:49:20;18.00;66.30
18177;DHT22;9213;50.858;3.964;2023-08-06T04:51:47;18.10;66.50
18177;DHT22;9213;50.858;3.964;2023-08-06T04:54:14;18.10;66.40
18177;DHT22;9213;50.858;3.964;2023-08-06T04:56:41;18.00;66.40
18177;DHT22;9213;50.858;3.964;2023-08-06T04:59:08;18.10;66.40
18177;DHT22;9213;50.858;3.964;2023-08-06T05:01:35;18.10;66.40
18177;DHT22;9213;50.858;3.964;2023-08-06T05:04:03;18.10;66.20
18177;DHT22;9213;50.858;3.964;2023-08-06T05:06:30;18.10;66.30
18177;DHT22;9213;50.858;3.964;2023-08-06T05:08:57;18.10;66.10
18177;DHT22;9213;50.858;3.964;2023-08-06T05:11:24;18.10;66.10
18177;DHT22;9213;50.858;3.964;2023-08-06T05:13:51;18.10;66.10
18177;DHT22;9213;50.858;3.964;2023-08-06T05:16:18;18.10;66.10
18177;DHT22;9213;50.858;3.964;2023-08-06T05:18:45;18.10;66.00
18177;DHT22;9213;50.858;3.964;2023-08-06T05:21:13;18.10;66.00
18177;DHT22;9213;50.858;3.964;2023-08-06T05:23:41;18.10;66.00
18177;DHT22;9213;50.858;3.964;2023-08-06T05:26:09;18.10;65.90
18177;DHT22;9213;50.858;3.964;2023-08-06T05:28:35;18.10;65.90
18177;DHT22;9213;50.858;3.964;2023-08-06T05:31:06;18.10;65.80
18177;DHT22;9213;50.858;3.964;2023-08-06T05:33:32;18.20;65.90
18177;DHT22;9213;50.858;3.964;2023-08-06T05:35:59;18.10;65.80
18177;DHT22;9213;50.858;3.964;2023-08-06T05:38:29;18.20;65.70
18177;DHT22;9213;50.858;3.964;2023-08-06T05:40:56;18.20;65.60
18177;DHT22;9213;50.858;3.964;2023-08-06T05:43:23;18.20;65.50
18177;DHT22;9213;50.858;3.964;2023-08-06T05:45:50;18.30;65.50
18177;DHT22;9213;50.858;3.964;2023-08-06T05:48:17;18.30;65.30
18177;DHT22;9213;50.858;3.964;2023-08-06T05:50:44;18.40;65.20
18177;DHT22;9213;50.858;3.964;2023-08-06T05:53:11;18.40;64.90
18177;DHT22;9213;50.858;3.964;2023-08-06T05:55:40;18.50;64.80
18177;DHT22;9213;50.858;3.964;2023-08-06T05:58:07;18.50;64.50
18177;DHT22;9213;50.858;3.964;2023-08-06T06:00:34;18.60;64.20
18177;DHT22;9213;50.858;3.964;2023-08-06T06:03:01;18.60;65.00
18177;DHT22;9213;50.858;3.964;2023-08-06T06:05:28;18.70;64.00
18177;DHT22;9213;50.858;3.964;2023-08-06T06:07:55;18.80;63.70
18177;DHT22;9213;50.858;3.964;2023-08-06T06:10:22;18.80;63.30
18177;DHT22;9213;50.858;3.964;2023-08-06T06:12:50;18.80;63.20
18177;DHT22;9213;50.858;3.964;2023-08-06T06:15:17;18.80;63.10
18177;DHT22;9213;50.858;3.964;2023-08-06T06:17:44;18.80;63.20
18177;DHT22;9213;50.858;3.964;2023-08-06T06:20:11;18.80;63.20
18177;DHT22;9213;50.858;3.964;2023-08-06T06:22:38;18.80;63.30
18177;DHT22;9213;50.858;3.964;2023-08-06T06:25:06;18.80;63.40
18177;DHT22;9213;50.858;3.964;2023-08-06T06:27:33;18.90;63.10
18177;DHT22;9213;50.858;3.964;2023-08-06T06:30:01;18.90;62.70
18177;DHT22;9213;50.858;3.964;2023-08-06T06:32:29;18.90;62.60
18177;DHT22;9213;50.858;3.964;2023-08-06T06:34:56;18.80;62.50
18177;DHT22;9213;50.858;3.964;2023-08-06T06:37:24;18.80;62.60
18177;DHT22;9213;50.858;3.964;2023-08-06T06:39:51;18.70;63.00
18177;DHT22;9213;50.858;3.964;2023-08-06T06:42:17;18.70;63.20
18177;DHT22;9213;50.858;3.964;2023-08-06T06:44:44;18.70;63.40
18177;DHT22;9213;50.858;3.964;2023-08-06T06:47:13;18.70;63.50
18177;DHT22;9213;50.858;3.964;2023-08-06T06:49:39;18.70;63.40
18177;DHT22;9213;50.858;3.964;2023-08-06T06:52:07;18.70;63.20
18177;DHT22;9213;50.858;3.964;2023-08-06T06:54:34;18.70;63.10
18177;DHT22;9213;50.858;3.964;2023-08-06T06:57:01;18.70;63.30
18177;DHT22;9213;50.858;3.964;2023-08-06T06:59:27;18.70;63.40
18177;DHT22;9213;50.858;3.964;2023-08-06T07:01:54;18.70;63.40
18177;DHT22;9213;50.858;3.964;2023-08-06T07:04:22;18.60;63.50
18177;DHT22;9213;50.858;3.964;2023-08-06T07:06:49;18.60;63.60
18177;DHT22;9213;50.858;3.964;2023-08-06T07:09:17;18.60;63.80
18177;DHT22;9213;50.858;3.964;2023-08-06T07:11:44;18.70;64.10
18177;DHT22;9213;50.858;3.964;2023-08-06T07:14:11;18.70;64.10
18177;DHT22;9213;50.858;3.964;2023-08-06T07:16:40;18.80;63.90
18177;DHT22;9213;50.858;3.964;2023-08-06T07:19:06;18.90;63.60
18177;DHT22;9213;50.858;3.964;2023-08-06T07:21:35;19.00;63.30
18177;DHT22;9213;50.858;3.964;2023-08-06T07:24:02;19.10;63.10
18177;DHT22;9213;50.858;3.964;2023-08-06T07:26:29;19.10;62.70
18177;DHT22;9213;50.858;3.964;2023-08-06T07:28:56;19.20;62.90
18177;DHT22;9213;50.858;3.964;2023-08-06T07:31:23;19.50;65.10
18177;DHT22;9213;50.858;3.964;2023-08-06T07:33:50;20.30;63.50
18177;DHT22;9213;50.858;3.964;2023-08-06T07:36:17;21.00;59.50
18177;DHT22;9213;50.858;3.964;2023-08-06T07:38:45;21.40;57.30
18177;DHT22;9213;50.858;3.964;2023-08-06T07:41:12;21.50;56.80
18177;DHT22;9213;50.858;3.964;2023-08-06T07:43:39;21.60;56.10
18177;DHT22;9213;50.858;3.964;2023-08-06T07:46:08;21.70;55.60
18177;DHT22;9213;50.858;3.964;2023-08-06T07:48:35;21.70;55.20
18177;DHT22;9213;50.858;3.964;2023-08-06T07:51:02;21.70;54.40
18177;DHT22;9213;50.858;3.964;2023-08-06T07:53:29;21.60;53.50
18177;DHT22;9213;50.858;3.964;2023-08-06T07:55:57;21.30;54.10
18177;DHT22;9213;50.858;3.964;2023-08-06T07:58:25;21.20;54.30
18177;DHT22;9213;50.858;3.964;2023-08-06T08:00:52;21.00;54.70
18177;DHT22;9213;50.858;3.964;2023-08-06T08:03:19;21.00;54.50
18177;DHT22;9213;50.858;3.964;2023-08-06T08:05:46;20.80;54.30
18177;DHT22;9213;50.858;3.964;2023-08-06T08:08:13;20.70;54.90
18177;DHT22;9213;50.858;3.964;2023-08-06T08:10:41;20.60;54.70
18177;DHT22;9213;50.858;3.964;2023-08-06T08:13:09;20.50;54.60
18177;DHT22;9213;50.858;3.964;2023-08-06T08:15:36;20.30;54.50
18177;DHT22;9213;50.858;3.964;2023-08-06T08:18:03;20.30;55.30
18177;DHT22;9213;50.858;3.964;2023-08-06T08:20:30;20.30;55.50
18177;DHT22;9213;50.858;3.964;2023-08-06T08:22:59;20.30;55.50
18177;DHT22;9213;50.858;3.964;2023-08-06T08:25:27;20.30;55.80
18177;DHT22;9213;50.858;3.964;2023-08-06T08:27:54;20.30;56.00
18177;DHT22;9213;50.858;3.964;2023-08-06T08:30:22;20.40;55.80
18177;DHT22;9213;50.858;3.964;2023-08-06T08:32:50;20.40;55.50
18177;DHT22;9213;50.858;3.964;2023-08-06T08:35:20;20.30;56.30
18177;DHT22;9213;50.858;3.964;2023-08-06T08:37:47;20.30;55.60
18177;DHT22;9213;50.858;3.964;2023-08-06T08:40:14;20.40;55.50
18177;DHT22;9213;50.858;3.964;2023-08-06T08:42:42;20.40;55.40
18177;DHT22;9213;50.858;3.964;2023-08-06T08:45:12;20.30;55.30
18177;DHT22;9213;50.858;3.964;2023-08-06T08:47:42;20.20;55.40
18177;DHT22;9213;50.858;3.964;2023-08-06T08:50:10;20.00;55.90
18177;DHT22;9213;50.858;3.964;2023-08-06T08:52:38;19.90;56.60
18177;DHT22;9213;50.858;3.964;2023-08-06T08:55:07;19.80;57.10
18177;DHT22;9213;50.858;3.964;2023-08-06T08:57:34;19.70;57.30
18177;DHT22;9213;50.858;3.964;2023-08-06T09:00:01;19.70;57.50
18177;DHT22;9213;50.858;3.964;2023-08-06T09:02:29;19.70;57.70
18177;DHT22;9213;50.858;3.964;2023-08-06T09:05:00;19.70;57.60
18177;DHT22;9213;50.858;3.964;2023-08-06T09:07:32;19.70;57.40
18177;DHT22;9213;50.858;3.964;2023-08-06T09:10:03;19.70;57.30
18177;DHT22;9213;50.858;3.964;2023-08-06T09:12:31;19.70;57.60
18177;DHT22;9213;50.858;3.964;2023-08-06T09:14:58;19.70;57.70
18177;DHT22;9213;50.858;3.964;2023-08-06T09:17:25;19.60;57.60
18177;DHT22;9213;50.858;3.964;2023-08-06T09:19:54;19.60;57.40
18177;DHT22;9213;50.858;3.964;2023-08-06T09:22:22;19.50;57.70
18177;DHT22;9213;50.858;3.964;2023-08-06T09:24:49;19.40;58.00
18177;DHT22;9213;50.858;3.964;2023-08-06T09:27:16;19.40;58.10
18177;DHT22;9213;50.858;3.964;2023-08-06T09:29:45;19.30;58.40
18177;DHT22;9213;50.858;3.964;2023-08-06T09:32:12;19.30;58.50
18177;DHT22;9213;50.858;3.964;2023-08-06T09:34:41;19.30;58.60
18177;DHT22;9213;50.858;3.964;2023-08-06T09:37:08;19.30;58.70
18177;DHT22;9213;50.858;3.964;2023-08-06T09:39:39;19.40;58.30
18177;DHT22;9213;50.858;3.964;2023-08-06T09:42:06;19.40;58.10
18177;DHT22;9213;50.858;3.964;2023-08-06T09:44:34;19.40;58.10
18177;DHT22;9213;50.858;3.964;2023-08-06T09:47:02;19.40;58.40
18177;DHT22;9213;50.858;3.964;2023-08-06T09:49:41;19.40;58.70
18177;DHT22;9213;50.858;3.964;2023-08-06T09:52:11;19.50;58.70
18177;DHT22;9213;50.858;3.964;2023-08-06T09:54:39;19.60;58.50
18177;DHT22;9213;50.858;3.964;2023-08-06T09:57:06;19.70;58.50
18177;DHT22;9213;50.858;3.964;2023-08-06T09:59:34;19.80;57.90
18177;DHT22;9213;50.858;3.964;2023-08-06T10:02:03;19.90;57.70
18177;DHT22;9213;50.858;3.964;2023-08-06T10:04:33;19.90;57.80
18177;DHT22;9213;50.858;3.964;2023-08-06T10:07:00;19.90;58.00
18177;DHT22;9213;50.858;3.964;2023-08-06T10:09:28;20.00;58.10
18177;DHT22;9213;50.858;3.964;2023-08-06T10:11:57;20.10;57.90
18177;DHT22;9213;50.858;3.964;2023-08-06T10:14:26;20.20;57.70
18177;DHT22;9213;50.858;3.964;2023-08-06T10:16:56;20.40;57.30
18177;DHT22;9213;50.858;3.964;2023-08-06T10:19:25;20.50;56.40
18177;DHT22;9213;50.858;3.964;2023-08-06T10:22:11;20.50;56.00
18177;DHT22;9213;50.858;3.964;2023-08-06T10:24:57;20.50;56.30
18177;DHT22;9213;50.858;3.964;2023-08-06T10:27:31;20.50;56.30
18177;DHT22;9213;50.858;3.964;2023-08-06T10:30:23;20.50;56.30
18177;DHT22;9213;50.858;3.964;2023-08-06T10:32:51;20.70;56.60
18177;DHT22;9213;50.858;3.964;2023-08-06T10:35:29;21.00;56.20
18177;DHT22;9213;50.858;3.964;2023-08-06T10:37:59;21.50;55.30
18177;DHT22;9213;50.858;3.964;2023-08-06T10:40:26;21.90;53.70
18177;DHT22;9213;50.858;3.964;2023-08-06T10:42:58;22.30;52.90
18177;DHT22;9213;50.858;3.964;2023-08-06T10:45:25;22.70;51.40
18177;DHT22;9213;50.858;3.964;2023-08-06T10:47:54;23.10;50.40
18177;DHT22;9213;50.858;3.964;2023-08-06T10:50:21;23.40;49.10
18177;DHT22;9213;50.858;3.964;2023-08-06T10:52:48;23.50;48.00
18177;DHT22;9213;50.858;3.964;2023-08-06T10:55:22;23.60;46.90
18177;DHT22;9213;50.858;3.964;2023-08-06T10:57:50;23.50;46.30
18177;DHT22;9213;50.858;3.964;2023-08-06T11:00:18;23.40;46.10
18177;DHT22;9213;50.858;3.964;2023-08-06T11:02:47;23.20;46.00
18177;DHT22;9213;50.858;3.964;2023-08-06T11:05:14;23.20;47.00
18177;DHT22;9213;50.858;3.964;2023-08-06T11:07:41;23.20;46.50
18177;DHT22;9213;50.858;3.964;2023-08-06T11:10:10;23.30;46.20
18177;DHT22;9213;50.858;3.964;2023-08-06T11:12:37;23.30;46.00
18177;DHT22;9213;50.858;3.964;2023-08-06T11:15:05;23.30;46.10
18177;DHT22;9213;50.858;3.964;2023-08-06T11:17:34;23.30;45.50
18177;DHT22;9213;50.858;3.964;2023-08-06T11:20:02;23.30;46.30
18177;DHT22;9213;50.858;3.964;2023-08-06T11:22:30;23.30;45.80
18177;DHT22;9213;50.858;3.964;2023-08-06T11:24:57;23.30;45.10
18177;DHT22;9213;50.858;3.964;2023-08-06T11:27:27;23.10;44.80
18177;DHT22;9213;50.858;3.964;2023-08-06T11:29:54;22.90;45.70
18177;DHT22;9213;50.858;3.964;2023-08-06T11:32:21;22.70;46.10
18177;DHT22;9213;50.858;3.964;2023-08-06T11:34:50;22.50;47.00
18177;DHT22;9213;50.858;3.964;2023-08-06T11:37:21;22.20;47.60
18177;DHT22;9213;50.858;3.964;2023-08-06T11:39:49;21.90;48.50
18177;DHT22;9213;50.858;3.964;2023-08-06T11:42:17;21.60;49.70
18177;DHT22;9213;50.858;3.964;2023-08-06T11:44:44;21.20;51.00
18177;DHT22;9213;50.858;3.964;2023-08-06T11:47:13;20.90;52.10
18177;DHT22;9213;50.858;3.964;2023-08-06T11:49:42;20.70;53.40
18177;DHT22;9213;50.858;3.964;2023-08-06T11:52:14;20.50;53.90
18177;DHT22;9213;50.858;3.964;2023-08-06T11:54:42;20.50;55.10
18177;DHT22;9213;50.858;3.964;2023-08-06T11:57:09;20.50;55.60
18177;DHT22;9213;50.858;3.964;2023-08-06T11:59:37;20.60;55.30
18177;DHT22;9213;50.858;3.964;2023-08-06T12:02:07;20.80;54.90
18177;DHT22;9213;50.858;3.964;2023-08-06T12:05:03;21.00;55.20
18177;DHT22;9213;50.858;3.964;2023-08-06T12:07:33;21.20;55.10
18177;DHT22;9213;50.858;3.964;2023-08-06T12:10:04;21.40;54.40
18177;DHT22;9213;50.858;3.964;2023-08-06T12:12:31;21.60;53.70
18177;DHT22;9213;50.858;3.964;2023-08-06T12:14:58;21.80;53.20
18177;DHT22;9213;50.858;3.964;2023-08-06T12:17:25;22.00;52.40
18177;DHT22;9213;50.858;3.964;2023-08-06T12:19:52;22.00;51.50
18177;DHT22;9213;50.858;3.964;2023-08-06T12:22:19;21.90;51.20
18177;DHT22;9213;50.858;3.964;2023-08-06T12:24:47;21.60;52.20
18177;DHT22;9213;50.858;3.964;2023-08-06T12:27:14;21.30;53.00
18177;DHT22;9213;50.858;3.964;2023-08-06T12:29:42;21.00;54.30
18177;DHT22;9213;50.858;3.964;2023-08-06T12:32:09;20.80;55.30
18177;DHT22;9213;50.858;3.964;2023-08-06T12:34:37;20.80;56.30
18177;DHT22;9213;50.858;3.964;2023-08-06T12:37:05;20.80;56.50
18177;DHT22;9213;50.858;3.964;2023-08-06T12:39:32;20.90;56.30
18177;DHT22;9213;50.858;3.964;2023-08-06T12:42:01;21.00;56.00
18177;DHT22;9213;50.858;3.964;2023-08-06T12:44:28;21.10;55.50
18177;DHT22;9213;50.858;3.964;2023-08-06T12:46:55;21.20;55.50
18177;DHT22;9213;50.858;3.964;2023-08-06T12:49:22;21.40;55.70
18177;DHT22;9213;50.858;3.964;2023-08-06T12:51:50;21.70;55.80
18177;DHT22;9213;50.858;3.964;2023-08-06T12:54:18;22.00;55.10
18177;DHT22;9213;50.858;3.964;2023-08-06T12:56:45;22.40;54.70
18177;DHT22;9213;50.858;3.964;2023-08-06T12:59:15;22.80;54.00
18177;DHT22;9213;50.858;3.964;2023-08-06T13:01:42;23.20;52.50
18177;DHT22;9213;50.858;3.964;2023-08-06T13:04:09;23.40;51.10
18177;DHT22;9213;50.858;3.964;2023-08-06T13:06:36;23.50;49.80
18177;DHT22;9213;50.858;3.964;2023-08-06T13:09:05;23.40;48.40
18177;DHT22;9213;50.858;3.964;2023-08-06T13:11:33;23.00;49.10
18177;DHT22;9213;50.858;3.964;2023-08-06T13:14:05;22.80;49.90
18177;DHT22;9213;50.858;3.964;2023-08-06T13:16:34;22.70;49.70
18177;DHT22;9213;50.858;3.964;2023-08-06T13:19:01;22.70;49.60
18177;DHT22;9213;50.858;3.964;2023-08-06T13:21:32;22.80;49.80
18177;DHT22;9213;50.858;3.964;2023-08-06T13:23:59;23.00;49.30
18177;DHT22;9213;50.858;3.964;2023-08-06T13:26:27;23.10;48.50
18177;DHT22;9213;50.858;3.964;2023-08-06T13:28:54;23.20;47.90
18177;DHT22;9213;50.858;3.964;2023-08-06T13:31:21;23.20;47.50
18177;DHT22;9213;50.858;3.964;2023-08-06T13:33:49;23.20;47.20
18177;DHT22;9213;50.858;3.964;2023-08-06T13:36:16;23.30;46.90
18177;DHT22;9213;50.858;3.964;2023-08-06T13:38:43;23.30;46.80
18177;DHT22;9213;50.858;3.964;2023-08-06T13:41:10;23.30;46.50
18177;DHT22;9213;50.858;3.964;2023-08-06T13:43:38;23.30;46.70
18177;DHT22;9213;50.858;3.964;2023-08-06T13:46:05;23.20;46.10
18177;DHT22;9213;50.858;3.964;2023-08-06T13:48:32;23.10;45.30
18177;DHT22;9213;50.858;3.964;2023-08-06T13:51:00;23.10;45.40
18177;DHT22;9213;50.858;3.964;2023-08-06T13:53:27;23.10;45.60
18177;DHT22;9213;50.858;3.964;2023-08-06T13:55:55;23.00;45.20
18177;DHT22;9213;50.858;3.964;2023-08-06T13:58:23;23.00;45.00
18177;DHT22;9213;50.858;3.964;2023-08-06T14:00:52;23.00;45.30
18177;DHT22;9213;50.858;3.964;2023-08-06T14:03:20;22.90;46.10
18177;DHT22;9213;50.858;3.964;2023-08-06T14:05:46;22.70;45.70
18177;DHT22;9213;50.858;3.964;2023-08-06T14:08:15;22.50;46.50
18177;DHT22;9213;50.858;3.964;2023-08-06T14:10:43;22.50;46.90
18177;DHT22;9213;50.858;3.964;2023-08-06T14:13:10;22.50;47.00
18177;DHT22;9213;50.858;3.964;2023-08-06T14:15:38;22.50;46.30
18177;DHT22;9213;50.858;3.964;2023-08-06T14:18:06;22.50;46.20
18177;DHT22;9213;50.858;3.964;2023-08-06T14:20:34;22.50;46.20
18177;DHT22;9213;50.858;3.964;2023-08-06T14:23:01;22.50;46.50
18177;DHT22;9213;50.858;3.964;2023-08-06T14:25:29;22.50;45.70
18177;DHT22;9213;50.858;3.964;2023-08-06T14:27:56;22.50;45.50
18177;DHT22;9213;50.858;3.964;2023-08-06T14:30:23;22.60;45.70
18177;DHT22;9213;50.858;3.964;2023-08-06T14:32:50;22.70;46.00
18177;DHT22;9213;50.858;3.964;2023-08-06T14:35:17;22.90;46.40
18177;DHT22;9213;50.858;3.964;2023-08-06T14:37:44;23.10;46.20
18177;DHT22;9213;50.858;3.964;2023-08-06T14:40:11;23.20;45.70
18177;DHT22;9213;50.858;3.964;2023-08-06T14:42:40;23.40;45.00
18177;DHT22;9213;50.858;3.964;2023-08-06T14:45:07;23.50;44.40
18177;DHT22;9213;50.858;3.964;2023-08-06T14:47:34;23.50;44.00
18177;DHT22;9213;50.858;3.964;2023-08-06T14:50:01;23.60;44.30
18177;DHT22;9213;50.858;3.964;2023-08-06T14:52:28;23.60;44.60
18177;DHT22;9213;50.858;3.964;2023-08-06T14:54:55;23.60;44.70
18177;DHT22;9213;50.858;3.964;2023-08-06T14:57:22;23.70;44.60
18177;DHT22;9213;50.858;3.964;2023-08-06T14:59:54;23.80;44.70
18177;DHT22;9213;50.858;3.964;2023-08-06T15:02:21;23.80;43.90
18177;DHT22;9213;50.858;3.964;2023-08-06T15:04:48;23.80;43.90
18177;DHT22;9213;50.858;3.964;2023-08-06T15:07:15;23.70;44.20
18177;DHT22;9213;50.858;3.964;2023-08-06T15:09:42;23.70;44.30
18177;DHT22;9213;50.858;3.964;2023-08-06T15:12:10;23.80;43.90
18177;DHT22;9213;50.858;3.964;2023-08-06T15:14:38;23.80;43.70
18177;DHT22;9213;50.858;3.964;2023-08-06T15:17:06;23.80;43.10
18177;DHT22;9213;50.858;3.964;2023-08-06T15:19:33;23.80;42.80
18177;DHT22;9213;50.858;3.964;2023-08-06T15:22:00;23.60;42.80
18177;DHT22;9213;50.858;3.964;2023-08-06T15:24:27;23.50;43.10
18177;DHT22;9213;50.858;3.964;2023-08-06T15:26:54;23.50;43.30
18177;DHT22;9213;50.858;3.964;2023-08-06T15:29:21;23.40;43.30
18177;DHT22;9213;50.858;3.964;2023-08-06T15:31:47;23.30;43.30
18177;DHT22;9213;50.858;3.964;2023-08-06T15:34:16;23.30;43.60
18177;DHT22;9213;50.858;3.964;2023-08-06T15:36:43;23.30;43.40
18177;DHT22;9213;50.858;3.964;2023-08-06T15:39:10;23.30;43.70
18177;DHT22;9213;50.858;3.964;2023-08-06T15:41:37;23.40;43.70
18177;DHT22;9213;50.858;3.964;2023-08-06T15:44:04;23.40;43.20
18177;DHT22;9213;50.858;3.964;2023-08-06T15:46:31;23.50;43.50
18177;DHT22;9213;50.858;3.964;2023-08-06T15:49:00;23.50;43.50